Time;durP1;ratioP1;P1;durP2;ratioP2;P2;SDS_P1;SDS_P2;PMS_P1;PMS_P2;Temp;Humidity;BMP_temperature;BMP_pressure;BME280_temperature;BME280_humidity;BME280_pressure;Samples;Min_cycle;Max_cycle;Signal;HPM_P1;HPM_P2
2023/08/01 00:02:19;;;;;;;0.00;0.00;;;;;;;13.71;nan;99035.56;6237055;23;20012;-76
2023/08/01 00:04:45;;;;;;;0.00;0.00;;;;;;;13.76;nan;99038.16;6216809;23;20461;-76
2023/08/01 00:07:10;;;;;;;0.00;0.00;;;;;;;13.79;nan;99031.22;6192151;23;20026;-77
2023/08/01 00:09:36;;;;;;;0.00;0.00;;;;;;;13.92;nan;99044.00;6217622;23;20004;-75
2023/08/01 00:12:02;;;;;;;0.00;0.00;;;;;;;14.03;nan;99039.00;6242916;23;20015;-75
2023/08/01 00:14:28;;;;;;;0.00;0.00;;;;;;;14.14;nan;99039.47;6242719;23;20027;-75
2023/08/01 00:16:53;;;;;;;0.00;0.00;;;;;;;14.14;nan;99033.97;6192014;23;20004;-76
2023/08/01 00:19:19;;;;;;;0.00;0.00;;;;;;;14.23;nan;99042.22;6221379;22;20008;-76
2023/08/01 00:21:44;;;;;;;0.00;0.00;;;;;;;14.28;nan;99047.53;6246710;22;20012;-76
2023/08/01 00:24:10;;;;;;;0.00;0.00;;;;;;;14.34;nan;99051.78;6247712;22;20627;-78
2023/08/01 00:26:35;;;;;;;0.00;0.00;;;;;;;14.36;nan;99046.75;6222023;22;19999;-76
2023/08/01 00:29:01;;;;;;;0.00;0.00;;;;;;;14.33;nan;99047.41;6198046;22;20007;-75
2023/08/01 00:31:27;;;;;;;0.00;0.00;;;;;;;14.31;nan;99041.41;6247895;22;20411;-75
2023/08/01 00:33:52;;;;;;;0.00;0.00;;;;;;;14.33;nan;99047.41;6248710;22;20082;-74
2023/08/01 00:36:17;;;;;;;0.00;0.00;;;;;;;14.40;nan;99046.91;6247071;22;20050;-75
2023/08/01 00:38:43;;;;;;;0.00;0.00;;;;;;;14.41;nan;99043.00;6222612;22;20007;-74
2023/08/01 00:41:11;;;;;;;0.00;0.00;;;;;;;14.47;nan;99058.19;6274359;22;20331;-74
2023/08/01 00:43:37;;;;;;;0.00;0.00;;;;;;;14.50;nan;99060.31;6223497;22;20003;-75
2023/08/01 00:46:05;;;;;;;0.00;0.00;;;;;;;14.53;nan;99061.59;6247577;22;20003;-75
2023/08/01 00:48:31;;;;;;;0.00;0.00;;;;;;;14.58;nan;99065.00;6247446;22;20004;-75
2023/08/01 00:51:04;;;;;;;0.00;0.00;;;;;;;14.59;nan;99049.31;6247268;22;20435;-75
2023/08/01 00:53:30;;;;;;;0.00;0.00;;;;;;;14.62;nan;99059.69;6248310;22;20003;-77
2023/08/01 00:55:57;;;;;;;0.00;0.00;;;;;;;14.58;nan;99053.19;6248703;22;20389;-76
2023/08/01 00:58:22;;;;;;;0.00;0.00;;;;;;;14.62;nan;99059.69;6275354;22;20004;-77
2023/08/01 01:00:48;;;;;;;0.00;0.00;;;;;;;14.55;nan;99049.13;6222817;22;20010;-75
2023/08/01 01:03:14;;;;;;;0.00;0.00;;;;;;;14.54;nan;99058.53;6195756;22;20011;-74
2023/08/01 01:05:47;;;;;;;0.00;0.00;;;;;;;14.50;nan;99068.59;6248371;22;20137;-75
2023/08/01 01:08:13;;;;;;;0.00;0.00;;;;;;;14.47;nan;99064.53;6245880;22;20035;-75
2023/08/01 01:10:38;;;;;;;0.00;0.00;;;;;;;14.39;nan;99068.09;6246333;22;20308;-75
2023/08/01 01:13:04;;;;;;;0.00;0.00;;;;;;;14.21;nan;99066.50;6221701;22;20010;-75
2023/08/01 01:15:29;;;;;;;0.00;0.00;;;;;;;14.06;nan;99059.50;6222002;22;20008;-76
2023/08/01 01:17:55;;;;;;;0.00;0.00;;;;;;;13.88;nan;99058.69;6197622;22;20014;-75
2023/08/01 01:20:26;;;;;;;0.00;0.00;;;;;;;13.86;nan;99066.47;6242189;22;20027;-76
2023/08/01 01:22:54;;;;;;;0.00;0.00;;;;;;;13.76;nan;99068.38;6242314;23;20454;-75
2023/08/01 01:25:21;;;;;;;0.00;0.00;;;;;;;13.77;nan;99069.19;6241989;22;20431;-75
2023/08/01 01:27:49;;;;;;;0.00;0.00;;;;;;;13.77;nan;99078.25;6243661;22;19996;-75
2023/08/01 01:30:15;;;;;;;0.00;0.00;;;;;;;13.70;nan;99071.59;6243897;22;20004;-75
2023/08/01 01:32:41;;;;;;;0.00;0.00;;;;;;;13.70;nan;99069.66;6242722;22;20023;-75
2023/08/01 01:35:06;;;;;;;0.00;0.00;;;;;;;13.73;nan;99079.22;6213841;23;20016;-75
2023/08/01 01:37:32;;;;;;;0.00;0.00;;;;;;;13.69;nan;99068.03;6216733;23;20078;-75
2023/08/01 01:39:57;;;;;;;0.00;0.00;;;;;;;13.68;nan;99066.44;6242878;23;20004;-75
2023/08/01 01:42:23;;;;;;;0.00;0.00;;;;;;;13.68;nan;99071.94;6190664;23;20031;-75
2023/08/01 01:44:48;;;;;;;0.05;0.05;;;;;;;13.66;nan;99074.16;6217040;23;20016;-75
2023/08/01 01:47:13;;;;;;;0.00;0.00;;;;;;;13.66;nan;99076.91;6216587;23;20466;-76
2023/08/01 01:49:39;;;;;;;0.00;0.00;;;;;;;13.65;nan;99082.72;6191282;23;20081;-76
2023/08/01 01:52:04;;;;;;;0.00;0.00;;;;;;;13.64;nan;99081.94;6190827;23;20043;-74
2023/08/01 01:54:30;;;;;;;0.00;0.00;;;;;;;13.65;nan;99083.53;6215393;23;20099;-75
2023/08/01 01:56:55;;;;;;;0.00;0.00;;;;;;;13.69;nan;99090.00;6191044;23;20018;-75
2023/08/01 01:59:23;;;;;;;0.00;0.00;;;;;;;13.63;nan;99085.00;6216134;23;20087;-76
2023/08/01 02:01:48;;;;;;;0.00;0.00;;;;;;;13.61;nan;99099.06;6241193;23;20000;-75
2023/08/01 02:04:14;;;;;;;0.00;0.00;;;;;;;13.51;nan;99071.88;6240830;23;20101;-75
2023/08/01 02:06:42;;;;;;;0.00;0.00;;;;;;;13.46;nan;99070.06;6215535;23;20437;-76
2023/08/01 02:09:07;;;;;;;0.00;0.00;;;;;;;13.37;nan;99056.31;6214204;23;20328;-76
2023/08/01 02:11:38;;;;;;;0.00;0.00;;;;;;;13.30;nan;99058.69;6241899;23;20015;-74
2023/08/01 02:14:03;;;;;;;0.00;0.00;;;;;;;13.38;nan;99074.41;6241863;23;20019;-75
2023/08/01 02:16:28;;;;;;;0.00;0.00;;;;;;;13.20;nan;99040.56;6242615;22;20079;-76
2023/08/01 02:18:54;;;;;;;0.00;0.00;;;;;;;13.22;nan;99053.97;6216769;23;20012;-76
2023/08/01 02:21:22;;;;;;;0.00;0.00;;;;;;;13.22;nan;99060.28;6241224;22;20012;-77
2023/08/01 02:23:48;;;;;;;0.00;0.00;;;;;;;13.19;nan;99054.63;6241095;23;20011;-75
2023/08/01 02:26:15;;;;;;;0.00;0.00;;;;;;;13.26;nan;99066.75;6242101;23;20012;-76
2023/08/01 02:28:41;;;;;;;0.00;0.00;;;;;;;13.19;nan;99044.44;6216647;23;20603;-76
2023/08/01 02:31:07;;;;;;;0.00;0.00;;;;;;;13.18;nan;99037.31;6215905;23;20008;-75
2023/08/01 02:33:42;;;;;;;0.00;0.00;;;;;;;13.33;nan;99049.00;6241023;23;20078;-76
2023/08/01 02:36:08;;;;;;;0.00;0.00;;;;;;;13.34;nan;99043.22;6216701;23;20004;-77
2023/08/01 02:38:33;;;;;;;0.00;0.00;;;;;;;13.33;nan;99044.34;6241207;23;20015;-78
2023/08/01 02:40:58;;;;;;;0.00;0.00;;;;;;;13.42;nan;99041.66;6214676;23;20922;-77
2023/08/01 02:43:24;;;;;;;0.00;0.00;;;;;;;13.47;nan;99051.69;6243831;22;20031;-77
2023/08/01 02:45:49;;;;;;;0.00;0.00;;;;;;;13.50;nan;99059.28;6217694;23;20435;-77
2023/08/01 02:48:17;;;;;;;0.00;0.00;;;;;;;13.53;nan;99048.44;6216485;23;20489;-76
2023/08/01 02:50:45;;;;;;;0.00;0.00;;;;;;;13.50;nan;99042.78;6216820;23;20008;-76
2023/08/01 02:53:10;;;;;;;0.00;0.00;;;;;;;13.60;nan;99053.47;6242464;23;19996;-77
2023/08/01 02:55:39;;;;;;;0.00;0.00;;;;;;;13.66;nan;99057.69;6216191;23;20015;-77
2023/08/01 02:58:07;;;;;;;0.00;0.00;;;;;;;13.72;nan;99055.59;6241821;23;20015;-75
2023/08/01 03:00:37;;;;;;;0.00;0.00;;;;;;;13.58;nan;99031.00;6241543;23;20008;-76
2023/08/01 03:03:03;;;;;;;0.00;0.00;;;;;;;13.76;nan;99057.38;6218265;23;20454;-76
2023/08/01 03:05:28;;;;;;;0.00;0.00;;;;;;;13.84;nan;99060.47;6241355;23;20008;-76
2023/08/01 03:07:53;;;;;;;0.00;0.00;;;;;;;13.64;nan;99042.66;6241138;23;20008;-76
2023/08/01 03:10:19;;;;;;;0.00;0.00;;;;;;;13.69;nan;99057.03;6244787;23;20054;-76
2023/08/01 03:12:44;;;;;;;0.00;0.00;;;;;;;13.68;nan;99044.47;6242877;23;20091;-76
2023/08/01 03:15:10;;;;;;;0.00;0.00;;;;;;;13.62;nan;99056.72;6218748;23;20011;-77
2023/08/01 03:17:38;;;;;;;0.00;0.00;;;;;;;13.60;nan;99053.47;6243171;23;20011;-76
2023/08/01 03:20:04;;;;;;;0.00;0.00;;;;;;;13.54;nan;99046.53;6218889;23;20016;-77
2023/08/01 03:22:29;;;;;;;0.00;0.00;;;;;;;13.54;nan;99061.06;6242720;23;20051;-77
2023/08/01 03:24:55;;;;;;;0.00;0.00;;;;;;;13.50;nan;99057.31;6218110;23;20426;-77
2023/08/01 03:27:28;;;;;;;0.00;0.00;;;;;;;13.50;nan;99057.31;6244566;22;20004;-77
2023/08/01 03:29:53;;;;;;;0.00;0.00;;;;;;;13.49;nan;99057.66;6243369;23;20008;-76
2023/08/01 03:32:21;;;;;;;0.00;0.00;;;;;;;13.42;nan;99047.94;6217803;23;20480;-77
2023/08/01 03:34:48;;;;;;;0.00;0.00;;;;;;;13.50;nan;99053.78;6194046;23;20008;-77
2023/08/01 03:37:26;;;;;;;0.00;0.00;;;;;;;13.48;nan;99054.09;6243826;23;20012;-77
2023/08/01 03:40:10;;;;;;;0.00;0.00;;;;;;;13.53;nan;99053.13;6242983;23;20011;-77
2023/08/01 03:42:40;;;;;;;0.00;0.00;;;;;;;13.63;nan;99076.75;6217404;23;20050;-77
2023/08/01 03:45:08;;;;;;;0.00;0.00;;;;;;;13.61;nan;99066.09;6218201;23;20015;-76
2023/08/01 03:47:36;;;;;;;0.00;0.00;;;;;;;13.60;nan;99058.97;6242786;23;20031;-77
2023/08/01 03:50:02;;;;;;;0.00;0.00;;;;;;;13.51;nan;99056.22;6243257;23;20378;-76
2023/08/01 03:52:28;;;;;;;0.00;0.00;;;;;;;13.43;nan;99052.31;6215761;23;20019;-76
2023/08/01 03:54:55;;;;;;;0.00;0.00;;;;;;;13.47;nan;99060.72;6242600;23;20335;-77
2023/08/01 03:57:20;;;;;;;0.00;0.00;;;;;;;13.43;nan;99054.22;6242778;23;20007;-76
2023/08/01 03:59:49;;;;;;;0.00;0.00;;;;;;;13.54;nan;99077.53;6216571;23;20004;-75
2023/08/01 04:02:14;;;;;;;0.00;0.00;;;;;;;13.48;nan;99070.56;6241990;23;20023;-75
2023/08/01 04:04:39;;;;;;;0.00;0.00;;;;;;;13.38;nan;99079.09;6216730;23;20012;-75
2023/08/01 04:07:05;;;;;;;0.00;0.00;;;;;;;13.33;nan;99076.47;6241637;23;20000;-76
2023/08/01 04:09:30;;;;;;;0.00;0.00;;;;;;;13.31;nan;99071.28;6191566;23;20070;-75
2023/08/01 04:12:06;;;;;;;;;;;;;;;;;;;;;
2023/08/01 04:14:33;;;;;;;0.00;0.00;;;;;;;13.31;nan;99063.06;6244014;23;20078;-76
2023/08/01 04:16:58;;;;;;;0.00;0.00;;;;;;;13.36;nan;99071.19;6243117;23;20005;-77
2023/08/01 04:19:24;;;;;;;0.00;0.00;;;;;;;13.35;nan;99064.06;6194312;22;20011;-75
2023/08/01 04:21:50;;;;;;;0.00;0.00;;;;;;;13.35;nan;99083.28;6246438;22;20061;-77
2023/08/01 04:24:16;;;;;;;0.00;0.00;;;;;;;13.32;nan;99081.16;6247077;22;20402;-78
2023/08/01 04:26:41;;;;;;;0.00;0.00;;;;;;;13.23;nan;99066.59;6274920;22;20428;-78
2023/08/01 04:29:07;;;;;;;0.00;0.00;;;;;;;13.38;nan;99073.63;6247880;22;20010;-76
2023/08/01 04:31:36;;;;;;;0.00;0.00;;;;;;;13.39;nan;99073.28;6274253;22;20080;-76
2023/08/01 04:34:01;;;;;;;0.00;0.00;;;;;;;13.38;nan;99063.44;6247625;22;20011;-75
2023/08/01 04:36:26;;;;;;;0.00;0.00;;;;;;;13.41;nan;99062.00;6222275;22;20487;-76
2023/08/01 04:38:52;;;;;;;0.00;0.00;;;;;;;13.50;nan;99071.06;6246365;22;20007;-75
2023/08/01 04:41:17;;;;;;;0.00;0.00;;;;;;;13.53;nan;99069.63;6221740;22;20430;-76
2023/08/01 04:43:43;;;;;;;0.00;0.00;;;;;;;13.50;nan;99064.75;6222067;22;20079;-76
2023/08/01 04:46:08;;;;;;;0.00;0.00;;;;;;;13.65;nan;99083.53;6221774;22;20018;-75
2023/08/01 04:48:36;;;;;;;0.00;0.00;;;;;;;13.54;nan;99076.75;6221156;22;20087;-76
2023/08/01 04:51:01;;;;;;;0.00;0.00;;;;;;;13.53;nan;99088.84;6222184;22;20013;-76
2023/08/01 04:53:27;;;;;;;0.00;0.00;;;;;;;13.47;nan;99079.13;6222091;22;20008;-75
2023/08/01 04:55:52;;;;;;;0.00;0.00;;;;;;;13.41;nan;99087.50;6247200;22;20007;-75
2023/08/01 04:58:17;;;;;;;0.00;0.00;;;;;;;13.43;nan;99070.72;6246693;22;20308;-75
2023/08/01 05:00:43;;;;;;;0.00;0.00;;;;;;;13.25;nan;99069.81;6222309;22;20453;-76
2023/08/01 05:03:08;;;;;;;0.00;0.00;;;;;;;13.29;nan;99081.78;6222161;22;20076;-75
2023/08/01 05:05:34;;;;;;;0.00;0.00;;;;;;;13.26;nan;99082.41;6221469;22;20012;-76
2023/08/01 05:08:02;;;;;;;0.00;0.00;;;;;;;13.27;nan;99100.50;6196587;22;20369;-77
2023/08/01 05:10:28;;;;;;;0.00;0.00;;;;;;;13.22;nan;99081.44;6222798;22;20008;-77
2023/08/01 05:12:56;;;;;;;0.10;0.10;;;;;;;13.25;nan;99075.31;6222301;22;20441;-76
2023/08/01 05:15:24;;;;;;;0.03;0.03;;;;;;;13.25;nan;99075.31;6196130;22;20331;-76
2023/08/01 05:17:50;;;;;;;0.00;0.00;;;;;;;13.22;nan;99082.22;6222127;22;20004;-77
2023/08/01 05:20:18;;;;;;;0.00;0.00;;;;;;;13.22;nan;99098.69;6246709;22;20106;-77
2023/08/01 05:22:46;;;;;;;0.00;0.00;;;;;;;13.18;nan;99089.47;6222933;22;20007;-75
2023/08/01 05:25:14;;;;;;;0.00;0.00;;;;;;;13.27;nan;99100.50;6245489;22;20007;-76
2023/08/01 05:27:39;;;;;;;0.00;0.00;;;;;;;13.20;nan;99086.41;6247241;22;19999;-74
2023/08/01 05:30:05;;;;;;;0.00;0.00;;;;;;;13.33;nan;99114.91;6246980;22;20513;-74
2023/08/01 05:32:36;;;;;;;0.00;0.00;;;;;;;13.26;nan;99093.41;6245218;22;20019;-75
2023/08/01 05:35:05;;;;;;;0.00;0.00;;;;;;;13.31;nan;99090.50;6274052;22;20453;-74
2023/08/01 05:37:33;;;;;;;0.00;0.00;;;;;;;13.28;nan;99097.44;6222030;22;20090;-76
2023/08/01 05:40:16;;;;;;;0.00;0.00;;;;;;;13.22;nan;99081.44;6197812;22;20014;-74
2023/08/01 05:42:41;;;;;;;0.00;0.00;;;;;;;13.39;nan;99102.66;6245939;22;20006;-74
2023/08/01 05:45:11;;;;;;;0.00;0.00;;;;;;;13.43;nan;99089.94;6222514;22;20008;-75
2023/08/01 05:47:40;;;;;;;0.00;0.00;;;;;;;13.59;nan;99101.28;6246446;22;20445;-74
2023/08/01 05:50:06;;;;;;;0.00;0.00;;;;;;;13.73;nan;99101.97;6222270;22;20011;-74
2023/08/01 05:52:37;;;;;;;0.00;0.00;;;;;;;13.90;nan;99117.72;6247024;22;20003;-76
2023/08/01 05:55:02;;;;;;;0.00;0.00;;;;;;;13.88;nan;99097.16;6220105;22;20010;-75
2023/08/01 05:57:32;;;;;;;0.00;0.00;;;;;;;13.99;nan;99104.00;6246107;22;20007;-75
2023/08/01 05:59:58;;;;;;;0.00;0.00;;;;;;;14.15;nan;99126.31;6246912;22;20414;-76
2023/08/01 06:02:23;;;;;;;0.00;0.00;;;;;;;14.15;nan;99115.31;6220310;22;20085;-74
2023/08/01 06:04:49;;;;;;;0.00;0.00;;;;;;;14.18;nan;99122.94;6273818;22;20486;-75
2023/08/01 06:07:14;;;;;;;0.00;0.00;;;;;;;14.05;nan;99091.69;6219439;22;20334;-74
2023/08/01 06:09:39;;;;;;;0.00;0.00;;;;;;;14.15;nan;99112.56;6221032;22;20016;-74
2023/08/01 06:12:05;;;;;;;0.00;0.00;;;;;;;14.19;nan;99124.53;6219842;22;20015;-74
2023/08/01 06:14:31;;;;;;;0.00;0.00;;;;;;;14.25;nan;99134.25;6247162;22;20011;-75
2023/08/01 06:16:56;;;;;;;0.00;0.00;;;;;;;14.32;nan;99136.50;6195745;22;20035;-74
2023/08/01 06:19:24;;;;;;;0.00;0.00;;;;;;;14.34;nan;99117.75;6221082;22;20121;-74
2023/08/01 06:21:50;;;;;;;0.00;0.00;;;;;;;14.61;nan;99135.06;6219973;22;20008;-74
2023/08/01 06:24:15;;;;;;;0.00;0.00;;;;;;;14.70;nan;99144.13;6272637;22;20030;-73
2023/08/01 06:26:41;;;;;;;0.00;0.00;;;;;;;14.69;nan;99128.78;6246166;22;20007;-74
2023/08/01 06:29:06;;;;;;;0.00;0.00;;;;;;;14.74;nan;99147.88;6220799;22;20015;-73
2023/08/01 06:31:31;;;;;;;0.00;0.00;;;;;;;14.76;nan;99153.88;6242968;22;20431;-74
2023/08/01 06:33:57;;;;;;;0.00;0.00;;;;;;;14.70;nan;99155.16;6245897;22;20041;-75
2023/08/01 06:36:27;;;;;;;0.00;0.00;;;;;;;14.89;nan;99152.06;6245839;22;20008;-74
2023/08/01 06:38:56;;;;;;;0.00;0.00;;;;;;;15.15;nan;99138.25;6272114;22;20077;-74
2023/08/01 06:41:21;;;;;;;0.00;0.00;;;;;;;15.32;nan;99148.41;6222109;22;20014;-75
2023/08/01 06:43:47;;;;;;;0.00;0.00;;;;;;;15.35;nan;99133.19;6273742;22;20004;-74
2023/08/01 06:46:12;;;;;;;0.00;0.00;;;;;;;15.52;nan;99146.88;6241568;22;20077;-75
2023/08/01 06:48:39;;;;;;;0.00;0.00;;;;;;;15.53;nan;99133.91;6220283;22;20454;-74
2023/08/01 06:51:05;;;;;;;0.00;0.00;;;;;;;15.57;nan;99136.81;6246214;22;20022;-73
2023/08/01 06:53:30;;;;;;;0.00;0.00;;;;;;;15.79;nan;99149.56;6245502;22;20007;-74
2023/08/01 06:55:55;;;;;;;0.00;0.00;;;;;;;15.82;nan;99133.16;6195651;22;20038;-72
2023/08/01 06:58:24;;;;;;;0.00;0.00;;;;;;;15.83;nan;99145.78;6195193;22;20030;-73
2023/08/01 07:00:49;;;;;;;0.00;0.00;;;;;;;15.66;nan;99135.63;6221341;22;20034;-73
2023/08/01 07:03:14;;;;;;;0.00;0.00;;;;;;;15.68;nan;99154.56;6245842;22;20717;-73
2023/08/01 07:05:40;;;;;;;0.00;0.00;;;;;;;15.85;nan;99160.03;6220954;22;20817;-74
2023/08/01 07:08:05;;;;;;;0.00;0.00;;;;;;;16.20;nan;99159.03;6218995;22;20006;-73
2023/08/01 07:10:35;;;;;;;0.08;0.08;;;;;;;16.58;nan;99150.63;6195815;22;20038;-73
2023/08/01 07:13:03;;;;;;;0.00;0.00;;;;;;;17.05;nan;99162.59;6218932;22;20004;-73
2023/08/01 07:15:29;;;;;;;0.00;0.00;;;;;;;17.11;nan;99147.41;6245545;22;20019;-72
2023/08/01 07:17:54;;;;;;;0.00;0.00;;;;;;;17.21;nan;99163.56;6220432;22;20537;-73
2023/08/01 07:20:19;;;;;;;0.00;0.00;;;;;;;17.28;nan;99152.75;6221552;22;20413;-73
2023/08/01 07:22:45;;;;;;;0.00;0.00;;;;;;;17.57;nan;99159.25;6245153;22;20319;-72
2023/08/01 07:25:11;;;;;;;0.00;0.00;;;;;;;17.66;nan;99155.59;6194902;22;20050;-73
2023/08/01 07:27:37;;;;;;;0.00;0.00;;;;;;;17.69;nan;99165.94;6272546;22;20004;-72
2023/08/01 07:30:04;;;;;;;0.00;0.00;;;;;;;17.77;nan;99151.19;6194541;22;20027;-75
2023/08/01 07:32:29;;;;;;;0.00;0.00;;;;;;;17.88;nan;99157.88;6217897;22;20000;-73
2023/08/01 07:34:55;;;;;;;0.00;0.00;;;;;;;17.98;nan;99156.66;6195144;22;20606;-71
2023/08/01 07:37:20;;;;;;;0.00;0.00;;;;;;;18.20;nan;99163.66;6218980;22;20019;-73
2023/08/01 07:39:45;;;;;;;0.00;0.00;;;;;;;18.35;nan;99158.56;6244034;22;20074;-71
2023/08/01 07:42:11;;;;;;;0.00;0.00;;;;;;;18.23;nan;99156.63;6244136;22;20007;-73
2023/08/01 07:44:36;;;;;;;0.00;0.00;;;;;;;18.07;nan;99154.56;6214822;22;20424;-72
2023/08/01 07:47:02;;;;;;;0.00;0.00;;;;;;;18.13;nan;99157.91;6247250;22;20010;-73
2023/08/01 07:49:28;;;;;;;0.00;0.00;;;;;;;18.29;nan;99149.69;6220293;22;20362;-72
2023/08/01 07:51:53;;;;;;;0.00;0.00;;;;;;;18.25;nan;99140.47;6221454;22;20000;-73
2023/08/01 07:54:19;;;;;;;0.00;0.00;;;;;;;18.29;nan;99161.56;6221273;22;20003;-72
2023/08/01 07:56:51;;;;;;;0.00;0.00;;;;;;;18.26;nan;99162.25;6192053;22;20034;-74
2023/08/01 07:59:17;;;;;;;0.00;0.00;;;;;;;18.46;nan;99179.06;6221602;22;20085;-71
2023/08/01 08:01:42;;;;;;;0.00;0.00;;;;;;;18.43;nan;99183.34;6219552;22;20003;-71
2023/08/01 08:04:12;;;;;;;0.00;0.00;;;;;;;18.20;nan;99180.25;6270711;22;20085;-71
2023/08/01 08:06:38;;;;;;;0.00;0.00;;;;;;;18.18;nan;99192.81;6223414;22;20673;-72
2023/08/01 08:09:03;;;;;;;0.00;0.00;;;;;;;18.13;nan;99180.03;6245602;22;20011;-72
2023/08/01 08:11:29;;;;;;;0.00;0.00;;;;;;;18.08;nan;99172.78;6244576;22;20435;-72
2023/08/01 08:13:54;;;;;;;0.00;0.00;;;;;;;18.25;nan;99170.91;6196526;22;20007;-73
2023/08/01 08:16:19;;;;;;;0.00;0.00;;;;;;;18.39;nan;99178.84;6220584;22;20004;-72
2023/08/01 08:18:45;;;;;;;0.00;0.00;;;;;;;18.54;nan;99178.09;6221869;22;20023;-73
2023/08/01 08:21:10;;;;;;;0.00;0.00;;;;;;;18.96;nan;99166.69;6222669;22;20073;-73
2023/08/01 08:23:36;;;;;;;0.00;0.00;;;;;;;19.43;nan;99167.94;6221850;22;20008;-72
2023/08/01 08:26:01;;;;;;;0.00;0.00;;;;;;;19.92;nan;99172.34;6246679;22;20057;-72
2023/08/01 08:28:29;;;;;;;0.00;0.00;;;;;;;20.34;nan;99166.19;6221671;22;20000;-72
2023/08/01 08:30:55;;;;;;;0.00;0.00;;;;;;;20.54;nan;99166.22;6273049;22;20365;-73
2023/08/01 08:33:21;;;;;;;0.00;0.00;;;;;;;20.74;nan;99161.50;6247491;22;20018;-74
2023/08/01 08:35:47;;;;;;;0.00;0.00;;;;;;;20.62;nan;99159.66;6196838;22;20008;-73
2023/08/01 08:38:12;;;;;;;0.00;0.00;;;;;;;20.70;nan;99166.19;6247080;22;20019;-72
2023/08/01 08:40:43;;;;;;;0.00;0.00;;;;;;;20.77;nan;99163.56;6245626;22;20030;-73
2023/08/01 08:43:09;;;;;;;0.00;0.00;;;;;;;20.89;nan;99157.84;6246009;22;20030;-71
2023/08/01 08:45:40;;;;;;;0.00;0.00;;;;;;;21.24;nan;99167.22;6246936;22;20004;-72
2023/08/01 08:48:12;;;;;;;0.00;0.00;;;;;;;20.85;nan;99167.28;6223450;22;20030;-71
2023/08/01 08:50:38;;;;;;;0.00;0.00;;;;;;;20.74;nan;99161.50;6245717;22;20003;-72
2023/08/01 08:53:04;;;;;;;0.00;0.00;;;;;;;20.32;nan;99167.72;6247858;22;20007;-72
2023/08/01 08:55:31;;;;;;;0.00;0.00;;;;;;;19.39;nan;99155.16;6222014;22;20018;-72
2023/08/01 08:57:58;;;;;;;0.00;0.00;;;;;;;18.37;nan;99173.66;6221676;22;20016;-73
2023/08/01 09:00:23;;;;;;;0.00;0.00;;;;;;;17.61;nan;99187.03;6272863;22;20480;-72
2023/08/01 09:02:49;;;;;;;0.00;0.00;;;;;;;16.95;nan;99176.81;6248244;22;20012;-73
2023/08/01 09:05:14;;;;;;;0.00;0.00;;;;;;;16.47;nan;99179.78;6220963;22;20008;-73
2023/08/01 09:07:42;;;;;;;0.00;0.00;;;;;;;16.28;nan;99182.19;6221703;22;20012;-73
2023/08/01 09:10:08;;;;;;;0.00;0.00;;;;;;;16.15;nan;99171.09;6247151;22;20018;-73
2023/08/01 09:12:34;;;;;;;0.00;0.00;;;;;;;16.20;nan;99176.38;6222523;22;20353;-74
2023/08/01 09:15:00;;;;;;;0.00;0.00;;;;;;;16.62;nan;99180.31;6247972;22;20003;-72
2023/08/01 09:17:25;;;;;;;0.00;0.00;;;;;;;17.20;nan;99183.22;6221733;22;20007;-72
2023/08/01 09:20:07;;;;;;;0.00;0.00;;;;;;;17.91;nan;99184.88;6216897;23;20344;-75
2023/08/01 09:22:47;;;;;;;0.00;0.00;;;;;;;18.61;nan;99194.94;6242529;22;20084;-72
2023/08/01 09:25:13;;;;;;;0.00;0.00;;;;;;;18.79;nan;99183.56;6242062;23;20031;-73
2023/08/01 09:27:38;;;;;;;0.00;0.00;;;;;;;18.74;nan;99181.06;6241391;22;20000;-74
2023/08/01 09:30:17;;;;;;;0.00;0.00;;;;;;;18.73;nan;99190.53;6217174;23;20012;-73
2023/08/01 09:32:52;;;;;;;0.00;0.00;;;;;;;18.79;nan;99175.25;6242557;22;20163;-72
2023/08/01 09:35:18;;;;;;;0.00;0.00;;;;;;;18.93;nan;99178.47;6233542;23;20107;-73
2023/08/01 09:37:43;;;;;;;0.00;0.00;;;;;;;19.18;nan;99172.81;6187706;23;20077;-72
2023/08/01 09:40:10;;;;;;;0.00;0.00;;;;;;;19.97;nan;99185.94;6213629;23;20083;-72
2023/08/01 09:42:43;;;;;;;0.00;0.00;;;;;;;20.82;nan;99184.66;6242103;23;20440;-72
2023/08/01 09:45:16;;;;;;;0.00;0.00;;;;;;;21.56;nan;99189.28;6239583;23;20437;-73
2023/08/01 09:47:42;;;;;;;0.00;0.00;;;;;;;21.68;nan;99177.97;6239803;23;20398;-72
2023/08/01 09:50:19;;;;;;;0.00;0.00;;;;;;;23.04;nan;99181.09;6215443;23;20691;-74
2023/08/01 09:52:52;;;;;;;0.00;0.00;;;;;;;23.29;nan;99175.84;6243051;22;20008;-72
2023/08/01 09:55:19;;;;;;;0.00;0.00;;;;;;;25.82;nan;99178.03;6194249;23;20094;-73
2023/08/01 09:57:48;;;;;;;0.00;0.00;;;;;;;28.24;nan;99189.00;6243675;22;20007;-73
2023/08/01 10:00:14;;;;;;;0.00;0.00;;;;;;;30.24;nan;99177.44;6240709;23;20015;-72
2023/08/01 10:02:42;;;;;;;0.00;0.00;;;;;;;31.67;nan;99175.69;6216920;23;20020;-72
2023/08/01 10:05:10;;;;;;;0.00;0.00;;;;;;;33.81;nan;99157.91;6240882;23;20011;-72
2023/08/01 10:07:38;;;;;;;0.00;0.00;;;;;;;34.79;nan;99160.97;6242552;23;20380;-77
2023/08/01 10:10:05;;;;;;;0.00;0.00;;;;;;;35.19;nan;99168.75;6241686;23;20347;-73
2023/08/01 10:12:31;;;;;;;0.00;0.00;;;;;;;35.37;nan;99158.78;6217180;23;20011;-74
2023/08/01 10:14:57;;;;;;;0.00;0.00;;;;;;;35.48;nan;99156.28;6241328;23;20000;-73
2023/08/01 10:17:25;;;;;;;0.00;0.00;;;;;;;35.40;nan;99160.69;6241636;23;20000;-77
2023/08/01 10:19:53;;;;;;;0.00;0.00;;;;;;;35.03;nan;99151.97;6241266;22;20027;-74
2023/08/01 10:22:19;;;;;;;0.00;0.00;;;;;;;35.91;nan;99153.72;6215108;23;20061;-74
2023/08/01 10:24:46;;;;;;;0.00;0.00;;;;;;;36.55;nan;99155.84;6239898;23;20018;-73
2023/08/01 10:27:19;;;;;;;0.00;0.00;;;;;;;37.16;nan;99158.72;6242599;22;20046;-72
2023/08/01 10:29:46;;;;;;;0.00;0.00;;;;;;;35.34;nan;99148.34;6242424;22;20011;-74
2023/08/01 10:32:11;;;;;;;0.00;0.00;;;;;;;34.29;nan;99159.94;6241948;22;20000;-75
2023/08/01 10:34:37;;;;;;;0.00;0.00;;;;;;;33.31;nan;99145.34;6242374;22;20008;-74
2023/08/01 10:37:02;;;;;;;0.00;0.00;;;;;;;31.92;nan;99157.31;6191365;23;20004;-72
2023/08/01 10:39:28;;;;;;;0.00;0.00;;;;;;;30.37;nan;99157.84;6214733;23;21226;-73
2023/08/01 10:42:05;;;;;;;0.00;0.00;;;;;;;30.06;nan;99144.72;6241539;23;20012;-73
2023/08/01 10:44:33;;;;;;;0.00;0.00;;;;;;;29.31;nan;99140.34;6241986;22;20000;-75
2023/08/01 10:47:04;;;;;;;0.00;0.00;;;;;;;27.83;nan;99141.97;6241239;23;20000;-73
2023/08/01 10:49:34;;;;;;;0.00;0.00;;;;;;;27.67;nan;99151.75;6240377;23;20042;-72
2023/08/01 10:52:00;;;;;;;0.00;0.00;;;;;;;28.08;nan;99150.22;6240996;23;20004;-75
2023/08/01 10:54:26;;;;;;;0.00;0.00;;;;;;;28.36;nan;99151.94;6215896;23;20159;-74
2023/08/01 10:56:53;;;;;;;0.00;0.00;;;;;;;28.51;nan;99158.19;6242252;23;20015;-76
2023/08/01 10:59:20;;;;;;;0.00;0.00;;;;;;;28.62;nan;99151.66;6242705;22;20000;-74
2023/08/01 11:01:50;;;;;;;0.00;0.00;;;;;;;29.06;nan;99149.91;6241067;23;20011;-75
2023/08/01 11:04:21;;;;;;;0.00;0.00;;;;;;;32.47;nan;99151.84;6240477;23;20431;-75
2023/08/01 11:06:48;;;;;;;0.00;0.00;;;;;;;35.51;nan;99157.41;6216333;23;20031;-74
2023/08/01 11:09:19;;;;;;;0.00;0.00;;;;;;;37.37;nan;99154.06;6242096;22;20008;-72
2023/08/01 11:11:47;;;;;;;0.00;0.00;;;;;;;37.94;nan;99143.97;6215591;23;20012;-74
2023/08/01 11:14:14;;;;;;;0.00;0.00;;;;;;;36.22;nan;99144.28;6241555;22;20101;-74
2023/08/01 11:16:39;;;;;;;0.00;0.00;;;;;;;35.07;nan;99138.41;6239521;23;20058;-75
2023/08/01 11:19:05;;;;;;;0.00;0.00;;;;;;;36.37;nan;99141.63;6240700;23;20494;-72
2023/08/01 11:21:30;;;;;;;0.00;0.00;;;;;;;35.43;nan;99139.88;6240138;22;20439;-74
2023/08/01 11:23:56;;;;;;;0.00;0.00;;;;;;;35.95;nan;99140.97;6237676;23;20145;-75
2023/08/01 11:26:22;;;;;;;0.00;0.00;;;;;;;34.66;nan;99155.34;6240014;23;20011;-73
2023/08/01 11:28:48;;;;;;;0.00;0.00;;;;;;;34.06;nan;99150.59;6239506;23;20004;-73
2023/08/01 11:31:13;;;;;;;0.00;0.00;;;;;;;32.24;nan;99122.56;6191878;23;20633;-77
2023/08/01 11:33:39;;;;;;;0.00;0.00;;;;;;;30.03;nan;99139.94;6244516;22;20000;-75
2023/08/01 11:36:05;;;;;;;0.00;0.00;;;;;;;28.46;nan;99132.53;6244408;23;20007;-74
2023/08/01 11:38:33;;;;;;;0.00;0.00;;;;;;;28.14;nan;99134.50;6242533;23;20015;-72
2023/08/01 11:41:03;;;;;;;0.00;0.00;;;;;;;28.80;nan;99134.56;6243985;22;20000;-75
2023/08/01 11:43:40;;;;;;;0.00;0.00;;;;;;;29.70;nan;99122.81;6242386;23;20004;-76
2023/08/01 11:46:06;;;;;;;0.00;0.00;;;;;;;30.68;nan;99127.47;6243148;22;20642;-73
2023/08/01 11:48:31;;;;;;;0.00;0.00;;;;;;;31.50;nan;99124.81;6217002;23;20000;-75
2023/08/01 11:50:58;;;;;;;0.00;0.00;;;;;;;34.32;nan;99122.19;6215932;23;20450;-73